Consulta, visualización y exportación
Histórico de datos
Filtra por dispositivo y rango de fechas para inspeccionar el comportamiento de los data loggers, visualizar tendencias y descargar los resultados como CSV.
Tendencias del filtro actual
Gráficas del histórico
Cargando datos para la gráfica…
Temperatura y humedad
Batería y lluvia
| ID | Dispositivo | Fecha | Hora | sysDT | Temperatura 1 | Temperatura 2 | Humedad | Batería | Nivel de lluvia |
|---|---|---|---|---|---|---|---|---|---|
| 14503 | ciricote1 | 2026-05-09 | 19:45:51 | 2026-05-10 01:45:51 | 30.0 | 30.3 | 74.0 | 4.15 | 3.0 |
| 14502 | ciricote11 | 2026-05-09 | 19:45:43 | 2026-05-10 01:45:43 | 30.2 | 30.2 | 72.0 | 4.09 | 0.0 |
| 14501 | ciricote19 | 2026-05-09 | 19:32:55 | 2026-05-10 01:32:55 | 30.1 | 30.1 | 70.0 | 4.0 | 0.0 |
| 14500 | ciricote11 | 2026-05-09 | 19:31:06 | 2026-05-10 01:31:06 | 30.2 | 30.2 | 71.5 | 4.09 | 0.0 |
| 14499 | ciricote1 | 2026-05-09 | 19:30:51 | 2026-05-10 01:30:51 | 30.0 | 30.4 | 74.0 | 4.15 | 3.0 |
| 14498 | ciricote12 | 2026-05-09 | 19:30:48 | 2026-05-10 01:30:48 | 30.2 | 30.3 | 69.0 | 4.14 | 50.0 |
| 14497 | ciricote19 | 2026-05-09 | 19:17:41 | 2026-05-10 01:17:41 | 30.1 | 30.3 | 69.0 | 4.0 | 0.0 |
| 14496 | ciricote11 | 2026-05-09 | 19:16:06 | 2026-05-10 01:16:06 | 30.4 | 30.4 | 70.5 | 4.09 | 0.0 |
| 14495 | ciricote12 | 2026-05-09 | 19:15:55 | 2026-05-10 01:15:55 | 30.4 | 30.4 | 68.0 | 4.14 | 50.0 |
| 14494 | ciricote1 | 2026-05-09 | 19:15:44 | 2026-05-10 01:15:44 | 30.2 | 30.6 | 72.5 | 4.15 | 3.0 |
| 14493 | ciricote19 | 2026-05-09 | 19:02:55 | 2026-05-10 01:02:55 | 30.4 | 30.5 | 68.0 | 4.0 | 0.0 |
| 14492 | ciricote1 | 2026-05-09 | 19:01:07 | 2026-05-10 01:01:07 | 30.4 | 30.8 | 71.5 | 4.15 | 3.0 |
| 14491 | ciricote11 | 2026-05-09 | 19:00:59 | 2026-05-10 01:00:59 | 30.5 | 30.6 | 69.0 | 4.09 | 0.0 |
| 14490 | ciricote12 | 2026-05-09 | 19:00:55 | 2026-05-10 01:00:55 | 30.6 | 30.7 | 67.0 | 4.14 | 50.0 |
| 14489 | ciricote19 | 2026-05-09 | 18:47:55 | 2026-05-10 00:47:55 | 30.6 | 30.8 | 67.0 | 4.0 | 0.0 |
| 14488 | ciricote1 | 2026-05-09 | 18:46:00 | 2026-05-10 00:46:00 | 30.6 | 31.0 | 71.0 | 4.15 | 3.0 |
| 14487 | ciricote11 | 2026-05-09 | 18:45:59 | 2026-05-10 00:45:59 | 30.8 | 30.8 | 68.0 | 4.09 | 0.0 |
| 14486 | ciricote12 | 2026-05-09 | 18:45:55 | 2026-05-10 00:45:55 | 30.8 | 30.9 | 66.0 | 4.14 | 50.0 |
| 14485 | ciricote19 | 2026-05-09 | 18:32:48 | 2026-05-10 00:32:48 | 30.8 | 31.0 | 66.5 | 4.0 | 0.0 |
| 14484 | ciricote11 | 2026-05-09 | 18:30:52 | 2026-05-10 00:30:52 | 31.0 | 31.0 | 67.5 | 4.09 | 0.0 |
| 14483 | ciricote12 | 2026-05-09 | 18:30:48 | 2026-05-10 00:30:48 | 31.0 | 31.1 | 65.5 | 4.14 | 50.0 |
| 14482 | ciricote1 | 2026-05-09 | 18:30:46 | 2026-05-10 00:30:46 | 30.8 | 31.3 | 69.5 | 4.15 | 3.0 |
| 14481 | ciricote19 | 2026-05-09 | 18:17:48 | 2026-05-10 00:17:48 | 31.2 | 31.4 | 64.5 | 4.0 | 0.0 |
| 14480 | ciricote1 | 2026-05-09 | 18:16:09 | 2026-05-10 00:16:09 | 31.2 | 31.7 | 66.5 | 4.15 | 3.0 |
| 14479 | ciricote12 | 2026-05-09 | 18:15:48 | 2026-05-10 00:15:48 | 31.5 | 31.6 | 63.0 | 4.14 | 50.0 |
| 14478 | ciricote11 | 2026-05-09 | 18:15:45 | 2026-05-10 00:15:45 | 31.4 | 31.5 | 64.5 | 4.09 | 0.0 |
| 14477 | ciricote19 | 2026-05-09 | 18:03:04 | 2026-05-10 00:03:04 | 32.0 | 32.1 | 63.0 | 3.99 | 0.0 |
| 14476 | ciricote1 | 2026-05-09 | 18:00:55 | 2026-05-10 00:00:55 | 31.9 | 32.3 | 65.0 | 4.15 | 3.0 |
| 14475 | ciricote11 | 2026-05-09 | 18:00:52 | 2026-05-10 00:00:52 | 32.2 | 32.1 | 63.0 | 4.09 | 0.0 |
| 14474 | ciricote12 | 2026-05-09 | 18:00:48 | 2026-05-10 00:00:48 | 32.1 | 32.1 | 62.0 | 4.14 | 50.0 |
| 14473 | ciricote19 | 2026-05-09 | 17:47:41 | 2026-05-09 23:47:41 | 32.3 | 32.4 | 61.0 | 4.0 | 0.0 |
| 14472 | ciricote12 | 2026-05-09 | 17:45:48 | 2026-05-09 23:45:48 | 32.5 | 32.6 | 60.0 | 4.14 | 50.0 |
| 14471 | ciricote11 | 2026-05-09 | 17:45:45 | 2026-05-09 23:45:45 | 32.5 | 32.5 | 61.0 | 4.09 | 0.0 |
| 14470 | ciricote1 | 2026-05-09 | 17:45:41 | 2026-05-09 23:45:41 | 32.3 | 32.7 | 63.0 | 4.15 | 3.0 |
| 14469 | ciricote19 | 2026-05-09 | 17:33:04 | 2026-05-09 23:33:04 | 33.4 | 33.1 | 59.5 | 4.0 | 0.0 |
| 14468 | ciricote1 | 2026-05-09 | 17:30:57 | 2026-05-09 23:30:57 | 33.1 | 33.5 | 60.5 | 4.15 | 3.0 |
| 14467 | ciricote12 | 2026-05-09 | 17:30:48 | 2026-05-09 23:30:48 | 33.3 | 33.3 | 57.5 | 4.14 | 50.0 |
| 14466 | ciricote11 | 2026-05-09 | 17:30:45 | 2026-05-09 23:30:45 | 33.3 | 33.2 | 58.5 | 4.09 | 0.0 |
| 14465 | ciricote19 | 2026-05-09 | 17:17:41 | 2026-05-09 23:17:41 | 33.5 | 33.4 | 57.0 | 4.0 | 0.0 |
| 14464 | ciricote11 | 2026-05-09 | 17:16:08 | 2026-05-09 23:16:08 | 33.5 | 33.4 | 56.5 | 4.09 | 0.0 |
| 14463 | ciricote1 | 2026-05-09 | 17:15:43 | 2026-05-09 23:15:43 | 33.2 | 33.6 | 58.5 | 4.15 | 3.0 |
| 14462 | ciricote12 | 2026-05-09 | 17:15:41 | 2026-05-09 23:15:41 | 33.4 | 33.4 | 56.0 | 4.14 | 50.0 |
| 14461 | ciricote19 | 2026-05-09 | 17:02:57 | 2026-05-09 23:02:57 | 34.1 | 34.0 | 57.0 | 4.0 | 0.0 |
| 14460 | ciricote11 | 2026-05-09 | 17:01:01 | 2026-05-09 23:01:01 | 33.9 | 34.0 | 57.0 | 4.09 | 0.0 |
| 14459 | ciricote1 | 2026-05-09 | 17:00:59 | 2026-05-09 23:00:59 | 33.8 | 34.2 | 58.5 | 4.15 | 3.0 |
| 14458 | ciricote12 | 2026-05-09 | 17:00:41 | 2026-05-09 23:00:41 | 34.0 | 34.0 | 56.5 | 4.14 | 50.0 |
| 14457 | ciricote19 | 2026-05-09 | 16:48:04 | 2026-05-09 22:48:04 | 34.6 | 34.6 | 54.0 | 4.0 | 0.0 |
| 14456 | ciricote1 | 2026-05-09 | 16:46:08 | 2026-05-09 22:46:08 | 34.4 | 34.7 | 55.5 | 4.15 | 3.0 |
| 14455 | ciricote11 | 2026-05-09 | 16:46:01 | 2026-05-09 22:46:01 | 34.7 | 34.6 | 53.5 | 4.09 | 0.0 |
| 14454 | ciricote12 | 2026-05-09 | 16:45:41 | 2026-05-09 22:45:41 | 34.6 | 34.5 | 53.0 | 4.14 | 50.0 |
| 14453 | ciricote19 | 2026-05-09 | 16:32:57 | 2026-05-09 22:32:57 | 36.8 | 35.7 | 50.5 | 4.0 | 0.0 |
| 14452 | ciricote1 | 2026-05-09 | 16:31:10 | 2026-05-09 22:31:10 | 35.3 | 35.5 | 53.0 | 4.15 | 3.0 |
| 14451 | ciricote11 | 2026-05-09 | 16:30:54 | 2026-05-09 22:30:54 | 36.3 | 35.5 | 51.0 | 4.09 | 0.0 |
| 14450 | ciricote12 | 2026-05-09 | 16:30:41 | 2026-05-09 22:30:41 | 35.3 | 35.3 | 51.0 | 4.14 | 50.0 |
| 14449 | ciricote19 | 2026-05-09 | 16:17:57 | 2026-05-09 22:17:57 | 36.8 | 36.5 | 46.5 | 4.0 | 0.0 |
| 14448 | ciricote11 | 2026-05-09 | 16:15:54 | 2026-05-09 22:15:54 | 36.1 | 36.6 | 45.5 | 4.09 | 0.0 |
| 14447 | ciricote1 | 2026-05-09 | 16:15:49 | 2026-05-09 22:15:49 | 36.1 | 36.8 | 47.5 | 4.15 | 3.0 |
| 14446 | ciricote12 | 2026-05-09 | 16:15:41 | 2026-05-09 22:15:41 | 36.3 | 36.7 | 45.0 | 4.14 | 50.0 |
| 14445 | ciricote19 | 2026-05-09 | 16:02:50 | 2026-05-09 22:02:50 | 38.8 | 39.2 | 32.5 | 4.0 | 0.0 |
| 14444 | ciricote12 | 2026-05-09 | 16:01:04 | 2026-05-09 22:01:04 | 38.3 | 38.6 | 33.5 | 4.14 | 50.0 |
| 14443 | ciricote11 | 2026-05-09 | 16:00:54 | 2026-05-09 22:00:54 | 39.1 | 39.7 | 32.5 | 4.09 | 0.0 |
| 14442 | ciricote1 | 2026-05-09 | 16:00:49 | 2026-05-09 22:00:49 | 38.1 | 38.7 | 35.5 | 4.15 | 3.0 |
| 14441 | ciricote19 | 2026-05-09 | 15:47:57 | 2026-05-09 21:47:57 | 41.4 | 39.3 | 32.5 | 4.0 | 0.0 |
| 14440 | ciricote1 | 2026-05-09 | 15:46:05 | 2026-05-09 21:46:05 | 38.1 | 38.7 | 35.5 | 4.17 | 3.0 |
| 14439 | ciricote12 | 2026-05-09 | 15:46:04 | 2026-05-09 21:46:04 | 38.1 | 38.4 | 33.5 | 4.14 | 50.0 |
| 14438 | ciricote11 | 2026-05-09 | 15:45:47 | 2026-05-09 21:45:47 | 38.8 | 39.2 | 33.0 | 4.09 | 0.0 |
| 14437 | ciricote19 | 2026-05-09 | 15:32:57 | 2026-05-09 21:32:57 | 39.4 | 39.8 | 32.0 | 4.0 | 0.0 |
| 14436 | ciricote12 | 2026-05-09 | 15:31:04 | 2026-05-09 21:31:04 | 38.3 | 39.1 | 33.5 | 4.14 | 50.0 |
| 14435 | ciricote1 | 2026-05-09 | 15:30:51 | 2026-05-09 21:30:51 | 38.5 | 39.5 | 35.5 | 4.15 | 3.0 |
| 14434 | ciricote11 | 2026-05-09 | 15:30:47 | 2026-05-09 21:30:47 | 40.4 | 41.5 | 30.5 | 4.09 | 0.0 |
| 14433 | ciricote19 | 2026-05-09 | 15:17:50 | 2026-05-09 21:17:50 | 38.5 | 39.1 | 33.5 | 4.0 | 0.0 |
| 14432 | ciricote12 | 2026-05-09 | 15:16:04 | 2026-05-09 21:16:04 | 39.1 | 40.0 | 32.0 | 4.14 | 50.0 |
| 14431 | ciricote1 | 2026-05-09 | 15:15:51 | 2026-05-09 21:15:51 | 39.1 | 40.6 | 33.0 | 4.17 | 3.0 |
| 14430 | ciricote11 | 2026-05-09 | 15:15:47 | 2026-05-09 21:15:47 | 39.6 | 41.3 | 31.0 | 4.09 | 0.0 |
| 14429 | ciricote19 | 2026-05-09 | 15:02:50 | 2026-05-09 21:02:50 | 41.5 | 39.8 | 32.5 | 4.0 | 0.0 |
| 14428 | ciricote12 | 2026-05-09 | 15:01:04 | 2026-05-09 21:01:04 | 39.8 | 39.9 | 31.5 | 4.14 | 50.0 |
| 14427 | ciricote11 | 2026-05-09 | 15:00:47 | 2026-05-09 21:00:47 | 42.1 | 40.8 | 31.5 | 4.09 | 0.0 |
| 14426 | ciricote1 | 2026-05-09 | 15:00:44 | 2026-05-09 21:00:44 | 42.4 | 40.0 | 34.5 | 4.15 | 3.0 |
| 14425 | ciricote19 | 2026-05-09 | 14:47:50 | 2026-05-09 20:47:50 | 43.6 | 42.3 | 28.5 | 4.0 | 0.0 |
| 14424 | ciricote12 | 2026-05-09 | 14:46:04 | 2026-05-09 20:46:04 | 40.6 | 41.8 | 29.5 | 4.14 | 50.0 |
| 14423 | ciricote11 | 2026-05-09 | 14:45:47 | 2026-05-09 20:45:47 | 44.1 | 43.2 | 29.0 | 4.09 | 0.0 |
| 14422 | ciricote1 | 2026-05-09 | 14:45:44 | 2026-05-09 20:45:44 | 42.9 | 41.9 | 31.5 | 4.15 | 3.0 |
| 14421 | ciricote19 | 2026-05-09 | 14:32:50 | 2026-05-09 20:32:50 | 40.9 | 40.5 | 31.5 | 4.0 | 0.0 |
| 14420 | ciricote12 | 2026-05-09 | 14:31:04 | 2026-05-09 20:31:04 | 40.1 | 40.7 | 30.5 | 4.14 | 50.0 |
| 14419 | ciricote11 | 2026-05-09 | 14:30:47 | 2026-05-09 20:30:47 | 41.5 | 42.1 | 30.5 | 4.09 | 0.0 |
| 14418 | ciricote1 | 2026-05-09 | 14:30:44 | 2026-05-09 20:30:44 | 42.1 | 41.8 | 31.0 | 4.15 | 3.0 |
| 14417 | ciricote19 | 2026-05-09 | 14:17:50 | 2026-05-09 20:17:50 | 42.0 | 41.4 | 31.0 | 4.0 | 0.0 |
| 14416 | ciricote12 | 2026-05-09 | 14:16:04 | 2026-05-09 20:16:04 | 40.6 | 42.2 | 29.5 | 4.14 | 50.0 |
| 14415 | ciricote11 | 2026-05-09 | 14:15:54 | 2026-05-09 20:15:54 | 42.9 | 43.0 | 30.0 | 4.09 | 0.0 |
| 14414 | ciricote1 | 2026-05-09 | 14:15:51 | 2026-05-09 20:15:51 | 43.3 | 43.0 | 31.0 | 4.15 | 3.0 |
| 14413 | ciricote19 | 2026-05-09 | 14:02:50 | 2026-05-09 20:02:50 | 43.1 | 41.9 | 30.5 | 4.0 | 0.0 |
| 14412 | ciricote12 | 2026-05-09 | 14:01:04 | 2026-05-09 20:01:04 | 41.3 | 41.9 | 30.5 | 4.14 | 50.0 |
| 14411 | ciricote11 | 2026-05-09 | 14:00:54 | 2026-05-09 20:00:54 | 42.8 | 42.3 | 31.0 | 4.09 | 0.0 |
| 14410 | ciricote1 | 2026-05-09 | 14:00:51 | 2026-05-09 20:00:51 | 43.3 | 42.2 | 32.5 | 4.15 | 3.0 |
| 14409 | ciricote19 | 2026-05-09 | 13:47:50 | 2026-05-09 19:47:50 | 40.1 | 40.2 | 33.5 | 4.0 | 0.0 |
| 14408 | ciricote12 | 2026-05-09 | 13:46:04 | 2026-05-09 19:46:04 | 41.0 | 41.0 | 32.0 | 4.14 | 50.0 |
| 14407 | ciricote11 | 2026-05-09 | 13:45:54 | 2026-05-09 19:45:54 | 42.0 | 41.8 | 31.5 | 4.09 | 0.0 |
| 14406 | ciricote1 | 2026-05-09 | 13:45:51 | 2026-05-09 19:45:51 | 41.7 | 41.9 | 32.5 | 4.15 | 3.0 |
| 14405 | ciricote19 | 2026-05-09 | 13:32:50 | 2026-05-09 19:32:50 | 40.0 | 39.4 | 36.0 | 4.0 | 0.0 |
| 14404 | ciricote12 | 2026-05-09 | 13:31:04 | 2026-05-09 19:31:04 | 39.1 | 39.5 | 34.0 | 4.14 | 50.0 |
| 14403 | ciricote1 | 2026-05-09 | 13:30:58 | 2026-05-09 19:30:58 | 38.7 | 40.5 | 35.0 | 4.15 | 3.0 |
| 14402 | ciricote11 | 2026-05-09 | 13:30:54 | 2026-05-09 19:30:54 | 38.9 | 40.1 | 35.0 | 4.09 | 0.0 |
| 14401 | ciricote19 | 2026-05-09 | 13:17:50 | 2026-05-09 19:17:50 | 41.3 | 40.2 | 34.5 | 4.0 | 0.0 |
| 14400 | ciricote12 | 2026-05-09 | 13:16:04 | 2026-05-09 19:16:04 | 39.9 | 40.0 | 35.5 | 4.14 | 50.0 |
| 14399 | ciricote1 | 2026-05-09 | 13:15:58 | 2026-05-09 19:15:58 | 40.7 | 41.1 | 35.5 | 4.15 | 3.0 |
| 14398 | ciricote11 | 2026-05-09 | 13:15:54 | 2026-05-09 19:15:54 | 40.3 | 40.6 | 34.5 | 4.09 | 0.0 |
| 14397 | ciricote19 | 2026-05-09 | 13:02:57 | 2026-05-09 19:02:57 | 40.7 | 39.7 | 37.0 | 4.0 | 0.0 |
| 14396 | ciricote1 | 2026-05-09 | 13:01:05 | 2026-05-09 19:01:05 | 39.7 | 40.9 | 36.0 | 4.15 | 3.0 |
| 14395 | ciricote11 | 2026-05-09 | 13:00:54 | 2026-05-09 19:00:54 | 38.8 | 40.5 | 35.5 | 4.09 | 0.0 |
| 14394 | ciricote12 | 2026-05-09 | 13:00:41 | 2026-05-09 19:00:41 | 39.1 | 39.3 | 71.5 | 4.14 | 50.0 |
| 14393 | ciricote19 | 2026-05-09 | 12:47:57 | 2026-05-09 18:47:57 | 37.8 | 39.0 | 35.5 | 3.99 | 0.0 |
| 14392 | ciricote12 | 2026-05-09 | 12:46:04 | 2026-05-09 18:46:04 | 39.7 | 39.5 | 57.5 | 4.14 | 50.0 |
| 14391 | ciricote11 | 2026-05-09 | 12:45:47 | 2026-05-09 18:45:47 | 40.3 | 40.3 | 35.5 | 4.09 | 0.0 |
| 14390 | ciricote1 | 2026-05-09 | 12:45:42 | 2026-05-09 18:45:42 | 39.7 | 40.3 | 37.0 | 4.15 | 3.0 |
| 14389 | ciricote19 | 2026-05-09 | 12:33:28 | 2026-05-09 18:33:28 | 38.8 | 38.8 | 37.0 | 3.99 | 0.0 |
| 14388 | ciricote19 | 2026-05-09 | 12:32:57 | 2026-05-09 18:32:57 | 38.5 | 38.7 | 37.5 | 4.0 | 0.0 |
| 14387 | ciricote1 | 2026-05-09 | 12:31:27 | 2026-05-09 18:31:27 | 37.8 | 39.2 | 39.0 | 4.15 | 2.0 |
| 14386 | ciricote12 | 2026-05-09 | 12:31:04 | 2026-05-09 18:31:04 | 38.5 | 38.6 | 37.0 | 4.14 | 50.0 |
| 14385 | ciricote1 | 2026-05-09 | 12:30:56 | 2026-05-09 18:30:56 | 38.3 | 39.4 | 39.0 | 4.15 | 3.0 |
| 14384 | ciricote11 | 2026-05-09 | 12:30:47 | 2026-05-09 18:30:47 | 39.1 | 39.6 | 36.0 | 4.09 | 0.0 |
| 14383 | ciricote19 | 2026-05-09 | 12:17:57 | 2026-05-09 18:17:57 | 37.3 | 37.4 | 41.0 | 3.99 | 0.0 |
| 14382 | ciricote12 | 2026-05-09 | 12:16:04 | 2026-05-09 18:16:04 | 38.0 | 37.7 | 39.5 | 4.14 | 50.0 |
| 14381 | ciricote1 | 2026-05-09 | 12:15:49 | 2026-05-09 18:15:49 | 37.3 | 38.0 | 41.5 | 4.15 | 3.0 |
| 14380 | ciricote11 | 2026-05-09 | 12:15:47 | 2026-05-09 18:15:47 | 37.8 | 37.9 | 39.5 | 4.09 | 0.0 |
| 14379 | ciricote19 | 2026-05-09 | 12:02:50 | 2026-05-09 18:02:50 | 37.5 | 37.9 | 40.0 | 3.99 | 0.0 |
| 14378 | ciricote12 | 2026-05-09 | 12:01:04 | 2026-05-09 18:01:04 | 38.3 | 38.4 | 40.0 | 4.14 | 50.0 |
| 14377 | ciricote1 | 2026-05-09 | 12:00:56 | 2026-05-09 18:00:56 | 37.7 | 38.6 | 42.0 | 4.15 | 3.0 |
| 14376 | ciricote11 | 2026-05-09 | 12:00:47 | 2026-05-09 18:00:47 | 38.5 | 38.6 | 40.0 | 4.09 | 0.0 |
| 14375 | ciricote19 | 2026-05-09 | 11:47:57 | 2026-05-09 17:47:57 | 38.5 | 37.9 | 41.5 | 3.99 | 0.0 |
| 14374 | ciricote1 | 2026-05-09 | 11:46:10 | 2026-05-09 17:46:10 | 37.5 | 37.7 | 44.5 | 4.15 | 3.0 |
| 14373 | ciricote11 | 2026-05-09 | 11:45:54 | 2026-05-09 17:45:54 | 37.3 | 37.4 | 43.0 | 4.09 | 0.0 |
| 14372 | ciricote12 | 2026-05-09 | 11:45:41 | 2026-05-09 17:45:41 | 38.0 | 37.6 | 41.5 | 4.14 | 50.0 |
| 14371 | ciricote19 | 2026-05-09 | 11:32:50 | 2026-05-09 17:32:50 | 36.1 | 36.5 | 44.0 | 3.99 | 0.0 |
| 14370 | ciricote1 | 2026-05-09 | 11:31:10 | 2026-05-09 17:31:10 | 36.7 | 37.4 | 45.5 | 4.15 | 3.0 |
| 14369 | ciricote11 | 2026-05-09 | 11:30:47 | 2026-05-09 17:30:47 | 36.6 | 37.3 | 42.5 | 4.09 | 0.0 |
| 14368 | ciricote12 | 2026-05-09 | 11:30:41 | 2026-05-09 17:30:41 | 37.2 | 37.3 | 41.5 | 4.14 | 50.0 |
| 14367 | ciricote19 | 2026-05-09 | 11:17:57 | 2026-05-09 17:17:57 | 36.6 | 36.7 | 45.0 | 3.99 | 0.0 |
| 14366 | ciricote11 | 2026-05-09 | 11:16:15 | 2026-05-09 17:16:15 | 37.0 | 37.1 | 45.5 | 4.08 | 0.0 |
| 14365 | ciricote12 | 2026-05-09 | 11:16:12 | 2026-05-09 17:16:12 | 37.4 | 37.1 | 44.5 | 4.12 | 50.0 |
| 14364 | ciricote1 | 2026-05-09 | 11:15:47 | 2026-05-09 17:15:47 | 36.8 | 36.9 | 47.0 | 4.15 | 3.0 |
| 14363 | ciricote11 | 2026-05-09 | 11:15:47 | 2026-05-09 17:15:47 | 36.6 | 36.9 | 45.0 | 4.09 | 0.0 |
| 14362 | ciricote12 | 2026-05-09 | 11:15:41 | 2026-05-09 17:15:41 | 37.0 | 36.9 | 44.0 | 4.14 | 50.0 |
| 14361 | ciricote19 | 2026-05-09 | 11:02:50 | 2026-05-09 17:02:50 | 36.3 | 36.2 | 46.5 | 4.0 | 0.0 |
| 14360 | ciricote1 | 2026-05-09 | 11:00:54 | 2026-05-09 17:00:54 | 35.8 | 36.2 | 49.5 | 4.15 | 3.0 |
| 14359 | ciricote11 | 2026-05-09 | 11:00:54 | 2026-05-09 17:00:54 | 36.1 | 36.3 | 46.5 | 4.09 | 0.0 |
| 14358 | ciricote12 | 2026-05-09 | 11:00:41 | 2026-05-09 17:00:41 | 36.4 | 36.3 | 45.5 | 4.14 | 50.0 |
| 14357 | ciricote19 | 2026-05-09 | 10:47:50 | 2026-05-09 16:47:50 | 36.0 | 36.1 | 48.0 | 3.99 | 0.0 |
| 14356 | ciricote1 | 2026-05-09 | 10:46:08 | 2026-05-09 16:46:08 | 35.9 | 35.9 | 50.5 | 4.15 | 3.0 |
| 14355 | ciricote12 | 2026-05-09 | 10:46:04 | 2026-05-09 16:46:04 | 36.3 | 36.1 | 47.5 | 4.14 | 50.0 |
| 14354 | ciricote11 | 2026-05-09 | 10:45:54 | 2026-05-09 16:45:54 | 36.8 | 36.1 | 48.0 | 4.09 | 0.0 |
| 14353 | ciricote19 | 2026-05-09 | 10:32:50 | 2026-05-09 16:32:50 | 36.2 | 36.0 | 47.5 | 3.99 | 0.0 |
| 14352 | ciricote12 | 2026-05-09 | 10:31:04 | 2026-05-09 16:31:04 | 37.5 | 36.3 | 46.5 | 4.14 | 50.0 |
| 14351 | ciricote11 | 2026-05-09 | 10:31:01 | 2026-05-09 16:31:01 | 36.5 | 36.0 | 47.5 | 4.09 | 0.0 |
| 14350 | ciricote1 | 2026-05-09 | 10:30:52 | 2026-05-09 16:30:52 | 36.3 | 36.0 | 50.0 | 4.15 | 3.0 |
| 14349 | ciricote19 | 2026-05-09 | 10:17:50 | 2026-05-09 16:17:50 | 34.6 | 34.6 | 52.5 | 3.99 | 0.0 |
| 14348 | ciricote1 | 2026-05-09 | 10:16:06 | 2026-05-09 16:16:06 | 35.5 | 35.0 | 54.5 | 4.17 | 3.0 |
| 14347 | ciricote12 | 2026-05-09 | 10:16:04 | 2026-05-09 16:16:04 | 36.1 | 0.0 | 0.0 | 4.14 | 50.0 |
| 14346 | ciricote11 | 2026-05-09 | 10:16:01 | 2026-05-09 16:16:01 | 35.4 | 35.0 | 51.5 | 4.08 | 0.0 |
| 14345 | ciricote19 | 2026-05-09 | 10:02:43 | 2026-05-09 16:02:43 | 34.1 | 34.0 | 54.5 | 3.97 | 0.0 |
| 14344 | ciricote12 | 2026-05-09 | 10:01:04 | 2026-05-09 16:01:04 | 34.8 | 34.3 | 53.0 | 4.14 | 50.0 |
| 14343 | ciricote11 | 2026-05-09 | 10:01:01 | 2026-05-09 16:01:01 | 33.8 | 34.2 | 54.0 | 4.08 | 0.0 |
| 14342 | ciricote1 | 2026-05-09 | 10:00:43 | 2026-05-09 16:00:43 | 34.3 | 34.4 | 57.0 | 4.15 | 3.0 |
| 14341 | ciricote19 | 2026-05-09 | 09:47:50 | 2026-05-09 15:47:50 | 33.6 | 33.0 | 58.5 | 3.99 | 0.0 |
| 14340 | ciricote11 | 2026-05-09 | 09:46:01 | 2026-05-09 15:46:01 | 32.8 | 33.4 | 57.0 | 4.08 | 0.0 |
| 14339 | ciricote1 | 2026-05-09 | 09:45:43 | 2026-05-09 15:45:43 | 34.2 | 33.5 | 60.0 | 4.15 | 3.0 |
| 14338 | ciricote12 | 2026-05-09 | 09:45:41 | 2026-05-09 15:45:41 | 33.9 | 33.4 | 56.5 | 4.12 | 50.0 |
| 14337 | ciricote19 | 2026-05-09 | 09:32:43 | 2026-05-09 15:32:43 | 34.0 | 33.5 | 57.5 | 3.99 | 0.0 |
| 14336 | ciricote11 | 2026-05-09 | 09:31:08 | 2026-05-09 15:31:08 | 33.3 | 34.1 | 57.0 | 4.08 | 0.0 |
| 14335 | ciricote1 | 2026-05-09 | 09:31:04 | 2026-05-09 15:31:04 | 34.0 | 33.9 | 60.5 | 4.17 | 3.0 |
| 14334 | ciricote12 | 2026-05-09 | 09:31:04 | 2026-05-09 15:31:04 | 33.6 | 33.6 | 57.5 | 4.12 | 50.0 |
| 14333 | ciricote19 | 2026-05-09 | 09:17:43 | 2026-05-09 15:17:43 | 33.5 | 32.6 | 61.0 | 3.97 | 0.0 |
| 14332 | ciricote11 | 2026-05-09 | 09:16:08 | 2026-05-09 15:16:08 | 31.8 | 32.5 | 61.5 | 4.08 | 0.0 |
| 14331 | ciricote1 | 2026-05-09 | 09:15:41 | 2026-05-09 15:15:41 | 32.5 | 32.6 | 65.0 | 4.15 | 3.0 |
| 14330 | ciricote12 | 2026-05-09 | 09:15:41 | 2026-05-09 15:15:41 | 32.9 | 32.4 | 62.0 | 4.12 | 50.0 |
| 14329 | ciricote19 | 2026-05-09 | 09:02:50 | 2026-05-09 15:02:50 | 33.9 | 32.9 | 63.0 | 3.97 | 0.0 |
| 14328 | ciricote1 | 2026-05-09 | 09:00:55 | 2026-05-09 15:00:55 | 32.3 | 32.4 | 68.0 | 4.15 | 3.0 |
| 14327 | ciricote11 | 2026-05-09 | 09:00:45 | 2026-05-09 15:00:45 | 32.2 | 32.8 | 63.5 | 4.08 | 0.0 |
| 14326 | ciricote12 | 2026-05-09 | 09:00:41 | 2026-05-09 15:00:41 | 32.4 | 32.3 | 64.5 | 4.12 | 50.0 |
| 14325 | ciricote19 | 2026-05-09 | 08:47:50 | 2026-05-09 14:47:50 | 32.5 | 31.8 | 65.5 | 3.97 | 0.0 |
| 14324 | ciricote1 | 2026-05-09 | 08:46:09 | 2026-05-09 14:46:09 | 31.4 | 31.6 | 70.5 | 4.15 | 3.0 |
| 14323 | ciricote12 | 2026-05-09 | 08:45:48 | 2026-05-09 14:45:48 | 31.6 | 31.4 | 67.0 | 4.12 | 50.0 |
| 14322 | ciricote11 | 2026-05-09 | 08:45:45 | 2026-05-09 14:45:45 | 31.3 | 31.7 | 67.0 | 4.08 | 0.0 |
| 14321 | ciricote19 | 2026-05-09 | 08:32:57 | 2026-05-09 14:32:57 | 32.0 | 30.9 | 69.5 | 3.97 | 0.0 |
| 14320 | ciricote11 | 2026-05-09 | 08:31:06 | 2026-05-09 14:31:06 | 30.4 | 31.1 | 71.0 | 4.08 | 0.0 |
| 14319 | ciricote1 | 2026-05-09 | 08:30:53 | 2026-05-09 14:30:53 | 31.0 | 31.2 | 74.5 | 4.15 | 3.0 |
| 14318 | ciricote12 | 2026-05-09 | 08:30:41 | 2026-05-09 14:30:41 | 31.4 | 30.9 | 69.5 | 4.12 | 50.0 |
| 14317 | ciricote19 | 2026-05-09 | 08:18:04 | 2026-05-09 14:18:04 | 31.3 | 30.4 | 71.5 | 3.96 | 0.0 |
| 14316 | ciricote11 | 2026-05-09 | 08:16:04 | 2026-05-09 14:16:04 | 29.8 | 30.4 | 74.5 | 4.08 | 0.0 |
| 14315 | ciricote12 | 2026-05-09 | 08:15:55 | 2026-05-09 14:15:55 | 31.1 | 30.3 | 72.5 | 4.12 | 50.0 |
| 14314 | ciricote1 | 2026-05-09 | 08:15:44 | 2026-05-09 14:15:44 | 30.3 | 30.6 | 77.0 | 4.15 | 3.0 |
| 14313 | ciricote19 | 2026-05-09 | 08:03:04 | 2026-05-09 14:03:04 | 29.1 | 29.0 | 78.5 | 3.94 | 0.0 |
| 14312 | ciricote1 | 2026-05-09 | 08:00:58 | 2026-05-09 14:00:58 | 29.5 | 29.5 | 83.0 | 4.14 | 3.0 |
| 14311 | ciricote12 | 2026-05-09 | 08:00:55 | 2026-05-09 14:00:55 | 29.9 | 29.1 | 78.0 | 4.12 | 50.0 |
| 14310 | ciricote11 | 2026-05-09 | 08:00:48 | 2026-05-09 14:00:48 | 29.2 | 29.0 | 81.5 | 4.06 | 0.0 |
| 14309 | ciricote19 | 2026-05-09 | 07:47:41 | 2026-05-09 13:47:41 | 28.3 | 28.3 | 81.5 | 3.94 | 0.0 |
| 14308 | ciricote1 | 2026-05-09 | 07:46:05 | 2026-05-09 13:46:05 | 28.6 | 28.6 | 87.0 | 4.14 | 3.0 |
| 14307 | ciricote12 | 2026-05-09 | 07:45:55 | 2026-05-09 13:45:55 | 29.0 | 0.0 | 0.0 | 4.12 | 50.0 |
| 14306 | ciricote11 | 2026-05-09 | 07:45:55 | 2026-05-09 13:45:55 | 28.4 | 28.3 | 85.0 | 4.06 | 0.0 |
| 14305 | ciricote19 | 2026-05-09 | 07:32:57 | 2026-05-09 13:32:57 | 27.5 | 27.5 | 86.0 | 3.94 | 0.0 |
| 14304 | ciricote12 | 2026-05-09 | 07:31:02 | 2026-05-09 13:31:02 | 28.2 | 27.6 | 85.5 | 4.12 | 50.0 |
Página 2 de 74